KLHQ

Fairfield County Airport

Lancaster, Ohio, USA
METAR KLHQ 151253Z AUTO 00000KT 5SM BR CLR M07/M09 A3000 RMK AO2 SLP172 T10721089
Observed Flight Rules
Dec-15 @ 12:53 UTC (51 minutes ago) Marginal Visual Flight Rules
Wind Visibility Clouds Conditions
Calm 5 miles
  • Clear skies
  • Mist
Temperatures Readings
Current -7°C / 19°F
Dewpoint -9°C / 16°F
Humidity 86%
Altimeter 30" Hg
Pressure 1017.2 hPa
Elevation 260
METAR KLHQ 151253Z AUTO 00000KT 5SM BR CLR M07/M09 A3000 RMK AO2 SLP172 T10721089
Observed Flight Rules
Dec-15 @ 12:53 UTC
(51 minutes ago)
MVFR
Wind Visibility
Calm 5 miles
Clouds
  • Clear skies
Conditions
  • Mist
Temperature Dewpoint
-7°C / 19°F -9°C / 16°F
Humidity Altimeter Pressure
86% 30" Hg 1017.2 hPa